Time;durP1;ratioP1;P1;durP2;ratioP2;P2;SDS_P1;SDS_P2;PMS_P1;PMS_P2;Temp;Humidity;BMP_temperature;BMP_pressure;BME280_temperature;BME280_humidity;BME280_pressure;Samples;Min_cycle;Max_cycle;Signal;HPM_P1;HPM_P2
2023/08/15 00:01:22;;;;;;;14.88;7.18;;;;;;;18.30;78.29;100200.50;5093799;28;20409;-59
2023/08/15 00:03:47;;;;;;;13.80;6.63;;;;;;;18.38;78.48;100210.53;5094071;28;20028;-58
2023/08/15 00:06:13;;;;;;;12.77;6.80;;;;;;;18.36;78.68;100216.97;5093736;28;20481;-56
2023/08/15 00:08:39;;;;;;;10.35;6.75;;;;;;;18.35;78.50;100211.72;5093947;28;20043;-55
2023/08/15 00:11:04;;;;;;;11.85;6.72;;;;;;;18.30;78.50;100206.78;5093967;28;20048;-56
2023/08/15 00:13:30;;;;;;;15.30;7.18;;;;;;;18.30;78.94;100209.50;5094294;28;20036;-57
2023/08/15 00:15:55;;;;;;;11.80;6.75;;;;;;;18.28;78.91;100197.09;5094098;28;20032;-57
2023/08/15 00:18:21;;;;;;;10.68;7.10;;;;;;;18.30;78.77;100205.91;5093316;28;20289;-54
2023/08/15 00:20:48;;;;;;;12.00;7.03;;;;;;;18.28;78.85;100207.94;5093352;28;20031;-54
2023/08/15 00:23:14;;;;;;;10.77;6.72;;;;;;;18.28;78.92;100213.38;5092146;28;20043;-59
2023/08/15 00:25:39;;;;;;;12.70;7.43;;;;;;;18.25;78.90;100205.56;5093412;28;20035;-55
2023/08/15 00:28:05;;;;;;;17.30;7.82;;;;;;;18.22;79.23;100210.31;5093806;28;20363;-56
2023/08/15 00:30:32;;;;;;;17.35;7.63;;;;;;;18.20;79.22;100209.63;5093982;28;20032;-56
2023/08/15 00:32:58;;;;;;;14.82;7.93;;;;;;;18.16;79.16;100216.41;5093768;28;20463;-56
2023/08/15 00:35:24;;;;;;;13.27;7.20;;;;;;;18.07;79.48;100201.97;5093618;28;20111;-55
2023/08/15 00:37:49;;;;;;;16.75;7.95;;;;;;;18.13;79.51;100208.59;5092888;28;20093;-56
2023/08/15 00:40:15;;;;;;;11.60;7.57;;;;;;;18.12;79.93;100217.75;5092680;28;20084;-58
2023/08/15 00:42:40;;;;;;;11.60;7.10;;;;;;;18.08;79.80;100202.78;5093339;28;20039;-58
2023/08/15 00:45:06;;;;;;;14.18;7.90;;;;;;;18.09;79.72;100207.25;5092981;28;20024;-56
2023/08/15 00:47:32;;;;;;;16.13;7.78;;;;;;;18.04;80.03;100202.28;5093787;28;20043;-54
2023/08/15 00:49:59;;;;;;;15.10;7.63;;;;;;;18.05;80.11;100214.84;5091339;28;20127;-56
2023/08/15 00:52:26;;;;;;;14.02;7.78;;;;;;;18.04;79.85;100201.44;5078954;28;20036;-53
2023/08/15 00:54:53;;;;;;;15.05;7.90;;;;;;;18.01;79.91;100212.56;5072376;28;20099;-52
2023/08/15 00:57:19;;;;;;;13.52;8.00;;;;;;;18.00;80.02;100206.31;5087971;28;20063;-56
2023/08/15 00:59:45;;;;;;;15.48;9.05;;;;;;;17.99;80.20;100215.47;5092844;28;20032;-55
2023/08/15 01:02:11;;;;;;;11.38;7.65;;;;;;;17.99;80.11;100220.00;5093147;28;20050;-56
2023/08/15 01:04:38;;;;;;;12.75;7.70;;;;;;;17.96;80.38;100210.34;5092971;28;20072;-56
2023/08/15 01:07:04;;;;;;;18.13;7.93;;;;;;;17.93;80.25;100216.94;5092323;28;20107;-57
2023/08/15 01:09:30;;;;;;;13.73;7.38;;;;;;;17.88;80.46;100199.47;5093275;28;20579;-56
2023/08/15 01:12:01;;;;;;;20.60;8.10;;;;;;;17.91;80.51;100210.84;5092962;28;20127;-56
2023/08/15 01:14:35;;;;;;;13.10;7.53;;;;;;;17.91;80.58;100202.72;5092932;28;20062;-53
2023/08/15 01:17:01;;;;;;;13.75;7.65;;;;;;;17.71;80.68;100183.16;5093391;28;20031;-54
2023/08/15 01:19:38;;;;;;;13.00;8.02;;;;;;;17.98;80.54;100215.59;5092585;28;20040;-56
2023/08/15 01:22:20;;;;;;;16.08;7.85;;;;;;;17.92;80.79;100217.97;5086378;28;20024;-55
2023/08/15 01:24:46;;;;;;;15.68;9.23;;;;;;;17.86;80.56;100210.50;5092611;28;20032;-55
2023/08/15 01:27:12;;;;;;;14.15;7.78;;;;;;;17.84;80.89;100209.78;5092985;28;20020;-55
2023/08/15 01:29:37;;;;;;;13.43;8.32;;;;;;;17.77;80.88;100200.63;5092596;28;20447;-56
2023/08/15 01:32:24;;;;;;;14.63;6.95;;;;;;;17.86;81.12;100209.63;5093084;28;20036;-56
2023/08/15 01:35:02;;;;;;;12.23;7.82;;;;;;;17.85;81.15;100206.09;5092370;28;20058;-55
2023/08/15 01:37:30;;;;;;;11.20;7.13;;;;;;;17.78;80.64;100219.44;5092478;28;20039;-59
2023/08/15 01:39:58;;;;;;;13.23;7.55;;;;;;;17.53;81.05;100175.09;5074698;28;22445;-55
2023/08/15 01:42:25;;;;;;;14.35;8.32;;;;;;;17.79;81.18;100217.53;5092774;28;20039;-54
2023/08/15 01:44:53;;;;;;;13.00;7.47;;;;;;;17.74;81.00;100211.78;5092397;28;20080;-55
2023/08/15 01:47:19;;;;;;;12.38;8.00;;;;;;;17.59;80.99;100192.56;5092427;28;20032;-56
2023/08/15 01:49:45;;;;;;;13.63;7.53;;;;;;;17.61;81.12;100191.41;5092059;28;20489;-56
2023/08/15 01:52:10;;;;;;;10.00;7.50;;;;;;;17.74;81.24;100206.34;5092547;28;20068;-54
2023/08/15 01:54:36;;;;;;;13.80;7.72;;;;;;;17.74;81.07;100206.34;5093099;28;20024;-57
2023/08/15 01:57:01;;;;;;;16.15;7.47;;;;;;;17.73;81.24;100210.94;5092618;28;20040;-57
2023/08/15 01:59:27;;;;;;;10.20;7.63;;;;;;;17.76;81.30;100204.34;5092277;28;20039;-57
2023/08/15 02:01:52;;;;;;;12.93;8.63;;;;;;;17.62;81.20;100186.84;5092765;28;20450;-55
2023/08/15 02:04:18;;;;;;;15.60;8.43;;;;;;;17.77;81.09;100214.16;5092153;28;20039;-57
2023/08/15 02:06:43;;;;;;;11.43;7.97;;;;;;;17.77;80.86;100212.31;5095530;28;20354;-54
2023/08/15 02:09:09;;;;;;;14.02;8.65;;;;;;;17.80;80.88;100216.53;5095991;28;20040;-56
2023/08/15 02:11:35;;;;;;;12.82;7.60;;;;;;;17.76;80.91;100209.75;5096302;28;20035;-58
2023/08/15 02:14:00;;;;;;;11.43;8.00;;;;;;;17.81;80.85;100212.81;5096510;28;20035;-54
2023/08/15 02:16:26;;;;;;;12.07;7.43;;;;;;;17.78;80.75;100203.16;5096072;28;20358;-53
2023/08/15 02:18:51;;;;;;;11.35;8.38;;;;;;;17.86;80.55;100213.19;5095686;28;20028;-56
2023/08/15 02:21:17;;;;;;;9.77;7.47;;;;;;;17.90;80.60;100219.13;5094644;28;20054;-54
2023/08/15 02:23:42;;;;;;;10.25;7.32;;;;;;;17.91;80.36;100208.13;5093905;28;20626;-55
2023/08/15 02:26:08;;;;;;;11.02;7.43;;;;;;;17.94;79.98;100209.66;5094339;28;20024;-56
2023/08/15 02:28:34;;;;;;;12.68;7.30;;;;;;;17.98;80.23;100224.59;5095913;28;20512;-58
2023/08/15 02:30:59;;;;;;;14.00;7.32;;;;;;;18.01;79.99;100218.00;5095636;28;20043;-55
2023/08/15 02:33:25;;;;;;;10.82;7.38;;;;;;;18.05;80.02;100230.22;5095772;28;20085;-56
2023/08/15 02:35:52;;;;;;;15.30;8.45;;;;;;;17.93;79.75;100208.81;5096103;28;20185;-55
2023/08/15 02:38:17;;;;;;;14.35;7.72;;;;;;;18.11;79.54;100231.44;5095210;28;20043;-56
2023/08/15 02:40:43;;;;;;;10.77;7.43;;;;;;;18.16;79.33;100219.09;5095481;28;20028;-56
2023/08/15 02:43:09;;;;;;;14.75;7.10;;;;;;;18.20;78.97;100223.19;5095217;28;20169;-57
2023/08/15 02:45:34;;;;;;;16.30;7.50;;;;;;;18.25;78.98;100228.13;5095725;28;20035;-58
2023/08/15 02:48:00;;;;;;;12.57;7.85;;;;;;;18.29;78.63;100224.06;5094896;28;20359;-55
2023/08/15 02:50:25;;;;;;;15.40;7.93;;;;;;;18.15;78.40;100190.31;5095509;28;20107;-56
2023/08/15 02:52:51;;;;;;;15.15;8.02;;;;;;;18.43;78.16;100222.56;5077521;28;20032;-53
2023/08/15 02:55:16;;;;;;;17.83;7.75;;;;;;;18.50;77.85;100223.59;5095136;28;20032;-59
2023/08/15 02:57:42;;;;;;;14.73;7.28;;;;;;;18.57;77.35;100225.66;5095267;28;20028;-55
2023/08/15 03:00:09;;;;;;;12.27;8.10;;;;;;;18.61;77.12;100224.31;5095448;28;20104;-56
2023/08/15 03:02:34;;;;;;;15.43;7.50;;;;;;;18.67;77.25;100220.06;5094415;28;20024;-54
2023/08/15 03:05:00;;;;;;;12.80;7.40;;;;;;;18.74;77.04;100221.09;5095116;28;20129;-56
2023/08/15 03:07:26;;;;;;;20.08;8.65;;;;;;;18.77;76.64;100216.19;5094924;28;20040;-59
2023/08/15 03:09:51;;;;;;;17.63;7.90;;;;;;;18.89;76.33;100224.84;5073666;28;20052;-58
2023/08/15 03:12:17;;;;;;;17.02;7.38;;;;;;;18.98;75.78;100235.72;5074590;28;20041;-55
2023/08/15 03:14:43;;;;;;;13.90;7.50;;;;;;;19.09;75.30;100224.53;5074860;28;20394;-55
2023/08/15 03:17:08;;;;;;;18.65;7.93;;;;;;;19.16;74.82;100230.13;5073334;28;20038;-55
2023/08/15 03:19:34;;;;;;;17.50;8.05;;;;;;;19.26;74.47;100238.09;5074913;28;20025;-56
2023/08/15 03:22:00;;;;;;;15.93;9.00;;;;;;;19.30;74.32;100234.03;5073764;28;20044;-56
2023/08/15 03:24:30;;;;;;;11.80;8.05;;;;;;;19.45;74.26;100236.88;5074480;28;20362;-56
2023/08/15 03:26:55;;;;;;;15.10;7.35;;;;;;;19.54;73.61;100241.31;5074105;28;20024;-56
2023/08/15 03:29:21;;;;;;;17.90;8.70;;;;;;;19.67;73.36;100245.34;5074589;28;20029;-54
2023/08/15 03:31:46;;;;;;;11.73;7.43;;;;;;;19.77;72.95;100240.53;5074483;28;20056;-57
2023/08/15 03:34:12;;;;;;;14.32;7.90;;;;;;;19.88;72.44;100237.47;5074368;28;20024;-59
2023/08/15 03:36:37;;;;;;;16.88;7.65;;;;;;;19.99;71.92;100235.41;5074488;28;20039;-58
2023/08/15 03:39:03;;;;;;;13.00;7.28;;;;;;;20.11;71.51;100235.88;5074487;28;20487;-57
2023/08/15 03:41:28;;;;;;;16.92;7.90;;;;;;;20.23;71.13;100227.16;5074383;28;20070;-57
2023/08/15 03:43:54;;;;;;;14.00;7.10;;;;;;;20.34;70.76;100225.91;5074321;28;20327;-58
2023/08/15 03:46:19;;;;;;;18.73;7.47;;;;;;;20.49;70.04;100228.72;5074360;28;20083;-56
2023/08/15 03:48:45;;;;;;;10.85;7.15;;;;;;;20.78;69.44;100229.91;5074415;28;20028;-56
2023/08/15 03:51:11;;;;;;;13.52;7.93;;;;;;;21.75;66.51;100219.34;5074023;28;20068;-55
2023/08/15 03:53:36;;;;;;;10.32;7.45;;;;;;;23.21;61.54;100225.84;5073935;28;20040;-55
2023/08/15 03:56:02;;;;;;;11.43;6.68;;;;;;;24.64;56.46;100217.38;5074130;28;20473;-54
2023/08/15 03:58:27;;;;;;;15.52;6.22;;;;;;;25.88;52.95;100221.59;5074393;28;20035;-54
2023/08/15 04:00:53;;;;;;;10.27;6.60;;;;;;;26.98;50.20;100217.06;5073440;28;20040;-53
2023/08/15 04:03:19;;;;;;;8.32;5.45;;;;;;;28.14;46.78;100223.97;5073752;28;20059;-54
2023/08/15 04:05:48;;;;;;;13.82;6.80;;;;;;;29.26;44.43;100237.44;5073361;28;20063;-57
2023/08/15 04:08:15;;;;;;;10.68;5.93;;;;;;;30.29;41.60;100232.56;5074119;28;20036;-57
2023/08/15 04:10:43;;;;;;;10.48;5.60;;;;;;;31.07;39.45;100227.38;5089202;28;20047;-51
2023/08/15 04:13:09;;;;;;;9.38;5.85;;;;;;;31.86;37.51;100238.59;5093816;28;20100;-57
2023/08/15 04:15:36;;;;;;;10.65;5.35;;;;;;;32.58;36.36;100226.72;5093849;28;20032;-56
2023/08/15 04:18:07;;;;;;;13.10;4.88;;;;;;;33.28;34.86;100235.16;5094025;28;20054;-59
2023/08/15 04:20:40;;;;;;;10.50;4.90;;;;;;;33.95;33.06;100229.16;5093384;28;20028;-56
2023/08/15 04:23:07;;;;;;;8.85;4.78;;;;;;;34.39;32.41;100241.03;5086826;28;20126;-58
2023/08/15 04:25:34;;;;;;;4.88;4.25;;;;;;;34.91;31.30;100231.69;5093201;28;20020;-55
2023/08/15 04:28:00;;;;;;;7.45;4.07;;;;;;;35.68;30.60;100243.06;5093724;28;20040;-58
2023/08/15 04:30:26;;;;;;;6.68;4.00;;;;;;;36.19;29.33;100234.56;5092657;28;20085;-56
2023/08/15 04:32:51;;;;;;;5.30;3.60;;;;;;;36.47;28.55;100225.75;5093746;28;20161;-57
2023/08/15 04:35:17;;;;;;;6.40;4.00;;;;;;;36.93;27.85;100233.00;5093441;28;20040;-60
2023/08/15 04:37:42;;;;;;;8.18;3.88;;;;;;;37.39;26.70;100233.72;5093646;28;20032;-59
2023/08/15 04:40:14;;;;;;;5.70;3.63;;;;;;;37.98;26.53;100244.84;5093001;28;20119;-55
2023/08/15 04:42:41;;;;;;;7.18;3.53;;;;;;;38.24;25.50;100244.50;5093317;28;20051;-57
2023/08/15 04:45:08;;;;;;;6.40;3.88;;;;;;;38.67;25.32;100238.88;5092487;28;20027;-57
2023/08/15 04:47:34;;;;;;;10.60;4.30;;;;;;;39.38;24.56;100237.19;5093070;28;20059;-57
2023/08/15 04:49:59;;;;;;;6.13;3.53;;;;;;;40.03;22.93;100241.81;5092583;28;20056;-58
2023/08/15 04:52:25;;;;;;;5.15;3.28;;;;;;;40.62;22.35;100238.25;5093385;28;20115;-57
2023/08/15 04:54:50;;;;;;;6.65;3.80;;;;;;;41.09;21.68;100241.94;5093095;28;20430;-53
2023/08/15 04:57:16;;;;;;;4.95;3.53;;;;;;;41.43;21.52;100234.88;5093452;28;20115;-58
2023/08/15 04:59:42;;;;;;;6.50;3.58;;;;;;;41.97;20.97;100236.78;5093695;28;20103;-60
2023/08/15 05:02:07;;;;;;;7.30;3.30;;;;;;;42.32;20.44;100236.84;5093046;28;20038;-58
2023/08/15 05:04:33;;;;;;;5.15;3.35;;;;;;;42.68;19.92;100235.69;5092506;28;20032;-60
2023/08/15 05:07:00;;;;;;;4.95;3.35;;;;;;;43.01;19.58;100235.22;5093061;28;20032;-59
2023/08/15 05:09:29;;;;;;;6.85;3.47;;;;;;;43.52;19.27;100211.19;5092817;28;20075;-58
2023/08/15 05:11:55;;;;;;;5.30;3.20;;;;;;;44.26;18.32;100240.03;5092965;28;20111;-59
2023/08/15 05:14:22;;;;;;;6.65;3.63;;;;;;;44.79;17.85;100244.41;5092548;28;20028;-59
2023/08/15 05:16:48;;;;;;;4.90;3.33;;;;;;;45.08;17.50;100242.66;5093376;28;20059;-58
2023/08/15 05:19:14;;;;;;;4.53;3.58;;;;;;;45.33;17.44;100235.09;5092335;28;20350;-57
2023/08/15 05:21:41;;;;;;;7.53;3.42;;;;;;;45.58;16.88;100243.59;5092542;28;20123;-59
2023/08/15 05:24:07;;;;;;;7.30;3.40;;;;;;;45.85;16.58;100244.94;5092947;28;20028;-57
2023/08/15 05:26:33;;;;;;;7.97;3.10;;;;;;;46.27;16.08;100243.81;5092645;28;20092;-59
2023/08/15 05:28:58;;;;;;;6.40;3.28;;;;;;;46.68;15.67;100243.00;5092458;28;20070;-59
2023/08/15 05:31:24;;;;;;;4.65;3.20;;;;;;;47.04;15.70;100241.19;5082838;28;20089;-61
2023/08/15 05:33:49;;;;;;;8.38;3.72;;;;;;;47.26;15.01;100242.56;5091643;28;20446;-57
2023/08/15 05:36:15;;;;;;;9.18;3.17;;;;;;;47.15;15.25;100242.31;5092430;28;20469;-59
2023/08/15 05:38:40;;;;;;;6.72;3.20;;;;;;;47.11;15.15;100246.22;5091270;28;20050;-57
2023/08/15 05:41:06;;;;;;;6.78;2.83;;;;;;;46.89;15.04;100244.81;5076320;28;20032;-58
2023/08/15 05:43:31;;;;;;;5.00;3.22;;;;;;;46.84;15.04;100246.69;5096827;28;20039;-58
2023/08/15 05:45:57;;;;;;;6.38;2.80;;;;;;;46.81;15.21;100243.78;5096741;28;20028;-55
2023/08/15 05:48:22;;;;;;;5.05;3.10;;;;;;;47.36;14.67;100235.56;5096678;28;20028;-56
2023/08/15 05:50:48;;;;;;;5.60;2.92;;;;;;;48.01;14.13;100247.72;5095933;28;20031;-74
2023/08/15 05:53:13;;;;;;;4.82;3.05;;;;;;;48.35;14.06;100236.72;5096594;28;20020;-61
2023/08/15 05:55:40;;;;;;;3.22;2.78;;;;;;;48.73;13.04;100248.47;5096510;28;20028;-61
2023/08/15 05:58:06;;;;;;;4.60;2.85;;;;;;;48.92;13.12;100250.47;5096500;28;20043;-62
2023/08/15 06:00:31;;;;;;;2.65;2.45;;;;;;;49.16;12.69;100248.50;5096255;28;20032;-62
2023/08/15 06:02:57;;;;;;;3.53;2.50;;;;;;;49.42;12.74;100242.06;5096100;28;20039;-61
2023/08/15 06:05:22;;;;;;;3.50;2.38;;;;;;;49.87;11.86;100243.63;5096369;28;20350;-62
2023/08/15 06:07:48;;;;;;;2.80;2.47;;;;;;;50.32;11.68;100233.28;5096313;28;20187;-61
2023/08/15 06:10:14;;;;;;;3.00;2.60;;;;;;;51.06;11.03;100245.19;5096344;28;20093;-62
2023/08/15 06:12:41;;;;;;;4.60;2.97;;;;;;;51.45;11.00;100215.38;5095862;28;20481;-61
2023/08/15 06:15:06;;;;;;;4.43;2.50;;;;;;;52.08;10.72;100243.97;5096288;28;20127;-62
2023/08/15 06:17:32;;;;;;;4.97;3.45;;;;;;;51.78;10.90;100227.84;5096329;28;20112;-63
2023/08/15 06:19:57;;;;;;;5.72;2.88;;;;;;;51.59;11.29;100228.09;5096269;28;20355;-64
2023/08/15 06:22:23;;;;;;;6.25;2.72;;;;;;;51.46;11.26;100222.72;5096153;28;20417;-63
2023/08/15 06:24:48;;;;;;;3.40;2.88;;;;;;;51.74;10.85;100229.88;5096572;28;20039;-62
2023/08/15 06:27:14;;;;;;;5.97;3.10;;;;;;;51.91;10.32;100236.09;5095898;28;20066;-63
2023/08/15 06:29:39;;;;;;;7.18;3.10;;;;;;;51.98;10.47;100227.56;5095704;28;20040;-62
2023/08/15 06:32:06;;;;;;;3.45;3.15;;;;;;;52.52;10.57;100239.28;5096014;28;20035;-62
2023/08/15 06:34:32;;;;;;;5.25;2.95;;;;;;;52.66;10.66;100244.22;5096377;28;20039;-64
2023/08/15 06:36:57;;;;;;;4.20;3.15;;;;;;;52.83;10.51;100230.41;5095811;28;20024;-62
2023/08/15 06:39:23;;;;;;;5.30;3.08;;;;;;;53.23;9.48;100234.16;5096077;28;20058;-61
2023/08/15 06:41:48;;;;;;;4.47;3.58;;;;;;;52.79;10.04;100230.41;5096014;28;20081;-62
2023/08/15 06:44:14;;;;;;;11.07;3.65;;;;;;;52.92;9.91;100222.25;5095949;28;20059;-62
2023/08/15 06:46:39;;;;;;;6.45;3.58;;;;;;;53.61;9.52;100224.34;5095868;28;20038;-62
2023/08/15 06:49:05;;;;;;;5.60;3.47;;;;;;;54.03;9.37;100231.25;5095622;28;20103;-63
2023/08/15 06:51:30;;;;;;;5.28;3.50;;;;;;;53.67;9.05;100209.22;5094148;28;20032;-63
2023/08/15 06:53:56;;;;;;;6.88;3.38;;;;;;;53.86;9.63;100240.69;5095133;28;20072;-62
2023/08/15 06:56:21;;;;;;;4.28;3.53;;;;;;;54.33;8.57;100238.50;5095899;28;20024;-63
2023/08/15 06:58:47;;;;;;;5.47;3.45;;;;;;;54.71;8.94;100239.97;5095246;28;20131;-62
2023/08/15 07:01:12;;;;;;;5.82;3.88;;;;;;;55.05;8.48;100237.28;5094567;28;20028;-63
2023/08/15 07:03:38;;;;;;;4.45;3.95;;;;;;;55.56;8.15;100224.59;5095197;28;20032;-61
2023/08/15 07:06:05;;;;;;;6.82;3.10;;;;;;;54.91;8.64;100251.72;5094492;28;20047;-63
2023/08/15 07:08:32;;;;;;;5.38;3.88;;;;;;;53.06;9.84;100229.25;5094798;28;20096;-64
2023/08/15 07:10:59;;;;;;;5.72;3.70;;;;;;;52.85;9.84;100239.41;5094692;28;20143;-63
2023/08/15 07:13:25;;;;;;;4.75;3.53;;;;;;;52.46;10.13;100234.38;5094719;28;20090;-60
2023/08/15 07:15:57;;;;;;;11.23;4.50;;;;;;;53.33;10.06;100246.00;5094301;28;20028;-62
2023/08/15 07:18:23;;;;;;;6.15;3.33;;;;;;;52.31;10.66;100239.19;5087792;28;20948;-64
2023/08/15 07:20:50;;;;;;;8.43;3.00;;;;;;;50.53;11.31;100232.75;5091867;28;20099;-67
2023/08/15 07:23:16;;;;;;;3.58;3.28;;;;;;;48.09;12.79;100232.50;5094070;28;20463;-67
2023/08/15 07:25:43;;;;;;;4.05;2.80;;;;;;;46.82;14.10;100228.44;5093472;28;20123;-65
2023/08/15 07:28:09;;;;;;;3.67;2.58;;;;;;;47.73;13.33;100228.78;5094029;28;20331;-65
2023/08/15 07:30:34;;;;;;;4.40;3.03;;;;;;;48.16;13.18;100226.16;5094052;28;20028;-65
2023/08/15 07:33:00;;;;;;;3.92;2.72;;;;;;;48.44;12.92;100225.16;5093060;28;20031;-65
2023/08/15 07:35:25;;;;;;;3.22;2.78;;;;;;;49.16;12.59;100234.28;5093699;28;20503;-64
2023/08/15 07:37:51;;;;;;;4.47;2.95;;;;;;;50.29;11.51;100228.38;5094513;28;20031;-64
2023/08/15 07:40:21;;;;;;;4.32;3.00;;;;;;;50.69;11.58;100237.41;5093457;28;20032;-64
2023/08/15 07:42:50;;;;;;;5.05;2.90;;;;;;;50.76;11.42;100228.13;5090019;28;20497;-65
2023/08/15 07:45:16;;;;;;;3.65;3.15;;;;;;;51.53;10.92;100237.03;5093236;28;20036;-65
2023/08/15 07:47:42;;;;;;;4.68;3.45;;;;;;;51.32;10.64;100229.13;5093783;28;20063;-65
2023/08/15 07:50:26;;;;;;;4.82;3.00;;;;;;;51.62;11.53;100239.56;5081170;28;20137;-64
2023/08/15 07:52:53;;;;;;;3.92;2.78;;;;;;;50.96;11.40;100223.91;5093861;28;20035;-65
2023/08/15 07:55:19;;;;;;;6.45;3.50;;;;;;;50.09;12.11;100237.03;5093618;28;20427;-64
2023/08/15 07:57:45;;;;;;;5.22;3.30;;;;;;;46.63;14.38;100227.09;5091233;28;20024;-63
2023/08/15 08:00:13;;;;;;;5.93;2.67;;;;;;;43.45;17.28;100234.28;5084703;28;20051;-64
2023/08/15 08:02:40;;;;;;;9.27;3.22;;;;;;;40.68;20.42;100232.53;5083034;28;20450;-62
2023/08/15 08:05:07;;;;;;;6.82;3.03;;;;;;;38.76;22.36;100231.47;5090011;28;20031;-63
2023/08/15 08:07:34;;;;;;;6.97;2.80;;;;;;;37.30;24.51;100230.75;5093322;28;20047;-64
2023/08/15 08:10:00;;;;;;;6.30;3.20;;;;;;;35.73;27.01;100229.97;5093211;28;20203;-63
2023/08/15 08:12:27;;;;;;;6.88;3.30;;;;;;;34.91;27.75;100233.63;5083104;28;20135;-64
2023/08/15 08:14:52;;;;;;;3.63;2.70;;;;;;;35.16;27.97;100220.84;5085282;28;20462;-64
2023/08/15 08:17:18;;;;;;;3.75;2.90;;;;;;;35.00;28.10;100217.22;5091299;28;20035;-64
2023/08/15 08:19:43;;;;;;;6.20;3.15;;;;;;;34.59;28.95;100220.81;5086554;28;20109;-64
2023/08/15 08:22:09;;;;;;;4.68;3.25;;;;;;;34.33;29.01;100217.94;5092539;28;20450;-65
2023/08/15 08:24:34;;;;;;;3.85;3.30;;;;;;;34.56;28.74;100219.41;5082389;28;20032;-65
2023/08/15 08:27:00;;;;;;;6.25;3.10;;;;;;;34.77;28.44;100217.50;5088725;28;20051;-64
2023/08/15 08:29:26;;;;;;;3.90;3.10;;;;;;;34.73;28.69;100219.16;5077302;28;20037;-61
2023/08/15 08:31:51;;;;;;;8.68;3.50;;;;;;;34.66;28.77;100213.03;5081114;28;20115;-64
2023/08/15 08:34:17;;;;;;;7.63;3.53;;;;;;;34.67;29.47;100217.47;5073953;28;20205;-62
2023/08/15 08:36:42;;;;;;;4.47;3.55;;;;;;;34.72;29.26;100234.16;5071795;28;20036;-65
2023/08/15 08:39:08;;;;;;;5.20;3.47;;;;;;;34.52;29.12;100234.16;5072226;28;20028;-67
2023/08/15 08:41:38;;;;;;;5.88;3.50;;;;;;;34.36;29.42;100239.63;5068977;28;20443;-67
2023/08/15 08:44:04;;;;;;;8.50;3.55;;;;;;;34.15;30.23;100234.00;5092552;28;20031;-65
2023/08/15 08:46:30;;;;;;;3.67;3.10;;;;;;;33.85;30.56;100218.00;5092572;28;20038;-65
2023/08/15 08:48:57;;;;;;;6.32;3.30;;;;;;;33.35;31.18;100223.78;5092710;28;20055;-64
2023/08/15 08:51:24;;;;;;;5.15;3.08;;;;;;;32.50;32.32;100226.09;5092634;28;20027;-66
2023/08/15 08:53:49;;;;;;;6.03;3.13;;;;;;;31.56;33.75;100201.06;5092109;28;20028;-65
2023/08/15 08:56:17;;;;;;;6.03;3.15;;;;;;;31.31;35.10;100232.78;5092122;28;20042;-66
2023/08/15 08:58:48;;;;;;;8.82;3.60;;;;;;;30.98;35.78;100237.19;5092317;28;20035;-66
2023/08/15 09:01:14;;;;;;;7.32;3.42;;;;;;;30.82;36.21;100222.28;5090890;28;20067;-68
2023/08/15 09:03:40;;;;;;;9.35;4.00;;;;;;;30.90;35.85;100218.28;5091979;28;20043;-66
2023/08/15 09:06:06;;;;;;;10.23;4.15;;;;;;;31.22;35.44;100220.47;5092513;28;20027;-67
2023/08/15 09:08:32;;;;;;;8.60;3.92;;;;;;;31.57;35.50;100213.78;5092068;28;20105;-66
2023/08/15 09:10:58;;;;;;;14.10;4.13;;;;;;;31.85;34.16;100192.63;5091362;28;20492;-63
2023/08/15 09:13:24;;;;;;;11.73;3.83;;;;;;;32.26;34.08;100208.06;5090212;28;20137;-70
2023/08/15 09:15:51;;;;;;;4.65;3.40;;;;;;;32.39;34.02;100223.47;5091308;28;20028;-71
2023/08/15 09:18:22;;;;;;;4.80;3.40;;;;;;;32.58;32.90;100222.00;5091948;28;20024;-72
2023/08/15 09:20:48;;;;;;;5.40;3.20;;;;;;;32.56;32.47;100212.31;5089994;28;20028;-72
2023/08/15 09:23:15;;;;;;;6.75;3.58;;;;;;;32.59;32.80;100218.13;5091001;28;20063;-71
2023/08/15 09:25:41;;;;;;;8.82;3.25;;;;;;;32.64;33.34;100220.94;5089065;28;20047;-68
2023/08/15 09:28:06;;;;;;;8.30;3.58;;;;;;;32.35;33.72;100212.91;5090986;28;20036;-65
2023/08/15 09:30:32;;;;;;;5.40;3.38;;;;;;;32.10;34.27;100215.34;5085367;28;20233;-74
2023/08/15 09:33:00;;;;;;;6.72;3.38;;;;;;;32.01;34.85;100220.50;5089881;28;20155;-65
2023/08/15 09:35:26;;;;;;;4.88;3.35;;;;;;;31.99;34.24;100211.63;5091884;28;20419;-70
2023/08/15 09:37:52;;;;;;;3.22;2.92;;;;;;;31.95;35.20;100219.59;5090342;28;20066;-69
2023/08/15 09:40:24;;;;;;;10.02;3.50;;;;;;;32.09;34.43;100220.06;5089833;28;20094;-72
2023/08/15 09:42:53;;;;;;;7.85;3.78;;;;;;;31.83;34.90;100228.03;5090105;28;20047;-73
2023/08/15 09:45:19;;;;;;;8.35;3.25;;;;;;;31.45;36.02;100226.91;5091734;28;20116;-70
2023/08/15 09:47:45;;;;;;;6.05;3.08;;;;;;;31.19;36.31;100223.72;5091578;28;20043;-68
2023/08/15 09:50:18;;;;;;;6.07;3.22;;;;;;;31.21;35.92;100227.09;5091332;28;20036;-68
2023/08/15 09:52:45;;;;;;;4.07;3.05;;;;;;;31.22;35.66;100224.06;5091918;28;20027;-68
2023/08/15 09:55:12;;;;;;;4.15;3.40;;;;;;;31.14;35.63;100196.00;5092034;28;20066;-67
2023/08/15 09:57:39;;;;;;;6.90;3.08;;;;;;;31.18;36.26;100213.75;5091827;28;20039;-66
2023/08/15 10:00:09;;;;;;;7.30;3.00;;;;;;;31.25;35.83;100217.19;5074169;28;20032;-66
2023/08/15 10:02:43;;;;;;;5.72;3.30;;;;;;;31.31;35.53;100216.19;5092240;28;20024;-68
2023/08/15 10:05:11;;;;;;;5.30;3.42;;;;;;;31.30;35.93;100224.75;5091979;28;20034;-68
2023/08/15 10:07:38;;;;;;;3.95;3.15;;;;;;;31.28;35.52;100222.22;5091792;28;20039;-69
2023/08/15 10:10:05;;;;;;;5.85;2.90;;;;;;;31.42;35.27;100216.34;5091996;28;20125;-68
2023/08/15 10:12:32;;;;;;;6.72;3.35;;;;;;;31.38;35.33;100210.47;5092073;28;20115;-70
2023/08/15 10:14:59;;;;;;;3.47;3.00;;;;;;;31.47;36.15;100219.19;5074288;28;20039;-64
2023/08/15 10:17:27;;;;;;;7.45;2.90;;;;;;;31.55;35.47;100221.50;5091956;28;20414;-69
2023/08/15 10:19:54;;;;;;;4.88;3.00;;;;;;;31.60;34.61;100218.84;5091288;28;20024;-67
2023/08/15 10:22:22;;;;;;;3.55;3.22;;;;;;;31.24;35.27;100182.34;5091425;28;20224;-70
2023/08/15 10:24:48;;;;;;;5.32;3.47;;;;;;;31.47;35.27;100197.06;5091715;28;20050;-69
2023/08/15 10:27:14;;;;;;;5.70;3.45;;;;;;;31.64;35.67;100208.09;5093605;28;20028;-69
2023/08/15 10:30:06;;;;;;;6.75;3.35;;;;;;;31.76;35.17;100208.84;5095192;28;20226;-70
2023/08/15 10:32:32;;;;;;;6.13;3.22;;;;;;;30.99;34.56;100208.47;5091344;28;20081;-67
2023/08/15 10:34:58;;;;;;;4.95;2.88;;;;;;;30.58;34.65;100213.22;5095538;28;20085;-70
2023/08/15 10:37:29;;;;;;;7.47;2.83;;;;;;;30.27;35.61;100215.41;5094429;28;20104;-70
2023/08/15 10:40:13;;;;;;;5.97;3.00;;;;;;;30.19;35.71;100214.72;5095197;28;20335;-68
2023/08/15 10:43:06;;;;;;;5.70;2.95;;;;;;;30.10;36.18;100209.84;5094890;28;20030;-68
2023/08/15 10:45:36;;;;;;;3.80;2.85;;;;;;;29.71;36.91;100211.19;5091611;28;20123;-69
2023/08/15 10:48:02;;;;;;;5.25;2.80;;;;;;;29.37;37.22;100178.69;5094187;28;20035;-67
2023/08/15 10:50:28;;;;;;;6.70;2.85;;;;;;;29.56;37.02;100203.41;5093988;28;20043;-69
2023/08/15 10:53:01;;;;;;;7.85;3.00;;;;;;;29.63;37.58;100215.16;5094816;28;20442;-68
2023/08/15 10:55:30;;;;;;;8.52;3.15;;;;;;;29.53;38.06;100195.63;5094841;28;20036;-68
2023/08/15 10:57:56;;;;;;;6.50;2.97;;;;;;;29.57;38.04;100198.75;5076831;28;20084;-64
2023/08/15 11:00:23;;;;;;;4.43;3.05;;;;;;;29.60;37.79;100196.34;5094506;28;20024;-66
2023/08/15 11:02:50;;;;;;;3.75;2.90;;;;;;;29.80;37.68;100195.09;5094957;28;20020;-67
2023/08/15 11:05:18;;;;;;;4.57;3.20;;;;;;;30.07;36.98;100187.16;5093686;28;20031;-66
2023/08/15 11:07:44;;;;;;;6.13;3.00;;;;;;;30.37;37.40;100179.69;5094354;28;20024;-68
2023/08/15 11:10:12;;;;;;;7.80;3.40;;;;;;;30.47;36.65;100190.94;5076875;28;20052;-68
2023/08/15 11:12:37;;;;;;;5.57;3.03;;;;;;;30.47;37.05;100190.94;5094403;28;20036;-66
2023/08/15 11:15:08;;;;;;;5.63;2.85;;;;;;;30.45;36.54;100197.81;5093910;28;20375;-67
2023/08/15 11:17:33;;;;;;;7.18;3.20;;;;;;;30.36;35.94;100189.91;5094483;28;20038;-67
2023/08/15 11:19:59;;;;;;;8.40;4.28;;;;;;;30.24;36.27;100188.28;5094903;28;20111;-65